createdAt,value
2019-04-06T00:04:43.327Z,6.31
2019-04-06T00:10:38.340Z,6.31
2019-04-06T00:16:33.317Z,6.97
2019-04-06T00:22:28.343Z,6.84
2019-04-06T00:28:23.318Z,4.86
2019-04-06T00:34:18.319Z,5.31
2019-04-06T00:40:13.327Z,5.08
2019-04-06T00:46:08.385Z,7.3
2019-04-06T00:52:03.348Z,5.72
2019-04-06T00:57:58.366Z,4.43
2019-04-06T01:03:53.342Z,6.72
2019-04-06T01:09:48.358Z,4.53
2019-04-06T01:15:43.391Z,4.52
2019-04-06T01:21:38.381Z,5.83
2019-04-06T01:27:33.412Z,10.55
2019-04-06T01:33:28.355Z,6.97
2019-04-06T01:39:23.372Z,5.66
2019-04-06T01:45:18.455Z,5.86
2019-04-06T01:51:13.373Z,5.16
2019-04-06T01:57:08.374Z,5.91
2019-04-06T02:03:03.365Z,5.96
2019-04-06T02:08:58.382Z,4.4
2019-04-06T02:14:53.444Z,6.66
2019-04-06T02:20:48.428Z,5.23
2019-04-06T02:26:43.401Z,6.78
2019-04-06T02:32:38.376Z,7.48
2019-04-06T02:38:33.407Z,6.48
2019-04-06T02:44:28.406Z,6.89
2019-04-06T02:50:23.417Z,4.36
2019-04-06T02:56:18.402Z,6.62
2019-04-06T03:02:13.399Z,4.99
2019-04-06T03:08:08.418Z,5.82
2019-04-06T03:14:03.416Z,4.61
2019-04-06T03:19:58.420Z,5.05
2019-04-06T03:25:53.433Z,5.62
2019-04-06T03:31:48.465Z,5.2
2019-04-06T03:37:43.428Z,8.03
2019-04-06T03:43:38.452Z,7.02
2019-04-06T03:49:33.438Z,5.86
2019-04-06T03:55:28.425Z,4.32
2019-04-06T04:01:23.442Z,6.57
2019-04-06T04:07:18.425Z,6.05
2019-04-06T04:13:13.430Z,4.4
2019-04-06T04:19:08.450Z,8.81
2019-04-06T04:25:03.446Z,4.8
2019-04-06T04:30:58.561Z,4.74
2019-04-06T04:36:53.484Z,6.1
2019-04-06T04:42:48.489Z,7.22
2019-04-06T04:48:43.451Z,5.72
2019-04-06T04:54:38.482Z,8.03
2019-04-06T05:00:33.478Z,7.8
2019-04-06T05:06:28.528Z,5.96
2019-04-06T05:12:23.527Z,6.49
2019-04-06T05:18:18.525Z,6
2019-04-06T05:24:18.666Z,6.19
2019-04-06T05:30:08.538Z,5.34
2019-04-06T05:36:06.412Z,5.23
2019-04-06T05:41:58.497Z,5.04
2019-04-06T05:47:53.638Z,4.87
2019-04-06T05:53:49.245Z,7.9
2019-04-06T05:59:54.207Z,9.27
2019-04-06T06:05:57.054Z,8.06
2019-04-06T06:11:33.515Z,7.97
2019-04-06T06:17:39.936Z,8
2019-04-06T06:23:23.513Z,9.07
2019-04-06T06:29:18.527Z,10.9
2019-04-06T06:35:13.537Z,10.69
2019-04-06T06:41:08.636Z,12.05
2019-04-06T06:47:03.539Z,14.23
2019-04-06T06:52:58.531Z,11.85
2019-04-06T06:58:53.541Z,12.53
2019-04-06T07:10:43.590Z,23.84
2019-04-06T07:16:38.557Z,23.6
2019-04-06T07:22:33.586Z,30.16
2019-04-06T07:28:37.411Z,41.93
2019-04-06T07:34:23.649Z,52.5
2019-04-06T07:40:41.857Z,68.97
2019-04-06T07:46:13.593Z,84.33
2019-04-06T07:52:08.574Z,72.16
2019-04-06T07:58:03.571Z,63.89
2019-04-06T08:03:58.587Z,60.03
2019-04-06T08:09:53.615Z,62.4
2019-04-06T08:15:48.699Z,74.99
2019-04-06T08:21:43.581Z,102.87
2019-04-06T08:27:38.798Z,64.17
2019-04-06T08:33:33.602Z,51.67
2019-04-06T08:39:28.590Z,50.82
2019-04-06T08:45:23.634Z,48.29
2019-04-06T08:51:18.604Z,34.71
2019-04-06T08:57:13.609Z,35.41
2019-04-06T09:03:08.632Z,30.6
2019-04-06T09:09:03.617Z,19.39
2019-04-06T09:14:58.623Z,22.04
2019-04-06T09:20:53.625Z,14.41
2019-04-06T09:26:48.884Z,13.01
2019-04-06T09:32:43.886Z,11.32
2019-04-06T09:38:38.711Z,10.12
2019-04-06T09:44:33.641Z,10.71
2019-04-06T09:50:28.825Z,11.62
2019-04-06T09:56:23.660Z,10.84
2019-04-06T10:02:18.687Z,7.62
2019-04-06T10:08:13.655Z,7.35
2019-04-06T10:14:08.684Z,6.84
2019-04-06T10:20:03.671Z,11.79
2019-04-06T10:25:58.795Z,8.9
2019-04-06T10:31:53.666Z,7.47
2019-04-06T10:37:48.661Z,7.6
2019-04-06T10:43:43.706Z,8.14
2019-04-06T10:49:38.766Z,8.15
2019-04-06T10:55:33.840Z,7.39
2019-04-06T11:01:28.995Z,6.6
2019-04-06T11:07:23.699Z,5.93
2019-04-06T11:13:18.723Z,5.39
2019-04-06T11:19:13.746Z,8.57
2019-04-06T11:25:08.714Z,5.83
2019-04-06T11:31:04.054Z,5.65
2019-04-06T11:36:58.811Z,5.13
2019-04-06T11:42:53.733Z,4.97
2019-04-06T11:48:48.743Z,4.51
2019-04-06T11:54:43.730Z,5.48
2019-04-06T12:00:38.737Z,5.21
2019-04-06T12:06:33.746Z,3.43
2019-04-06T12:12:28.754Z,2.53
2019-04-06T12:18:23.932Z,5.28
2019-04-06T12:24:18.792Z,3.41
2019-04-06T12:30:13.883Z,5.06
2019-04-06T12:36:08.799Z,2.84
2019-04-06T12:42:03.784Z,3.2
2019-04-06T12:47:58.810Z,5.51
2019-04-06T12:53:53.801Z,6.28
2019-04-06T12:59:49.069Z,5.24
2019-04-06T13:05:43.834Z,3.53
2019-04-06T13:11:38.876Z,5.42
2019-04-06T13:17:33.840Z,4.76
2019-04-06T13:23:28.812Z,3.51
2019-04-06T13:29:23.883Z,3.93
2019-04-06T13:35:18.823Z,4.37
2019-04-06T13:41:13.901Z,4.01
2019-04-06T13:47:09.000Z,8.63
2019-04-06T13:53:03.837Z,4.56
2019-04-06T13:58:58.844Z,5.3
2019-04-06T14:04:53.843Z,6.41
2019-04-06T14:10:48.844Z,4.8
2019-04-06T14:16:44.137Z,3.63
2019-04-06T14:22:38.904Z,5.67
2019-04-06T14:28:33.947Z,3.75
2019-04-06T14:34:28.869Z,3.72
2019-04-06T14:40:23.865Z,4.44
2019-04-06T14:46:18.903Z,3.64
2019-04-06T14:52:14.065Z,3.8
2019-04-06T14:58:09.144Z,5.5
2019-04-06T15:04:04.203Z,3.9
2019-04-06T15:09:58.920Z,3.21
2019-04-06T15:15:54.281Z,3.23
2019-04-06T15:21:49.171Z,4.35
2019-04-06T15:27:44.060Z,3.04
2019-04-06T15:33:38.984Z,4.96
2019-04-06T15:39:33.900Z,2.66
2019-04-06T15:45:28.908Z,11.9
2019-04-06T15:51:23.927Z,3.36
2019-04-06T15:57:18.918Z,5.46
2019-04-06T16:03:14.072Z,3.22
2019-04-06T16:09:08.972Z,4.68
2019-04-06T16:15:04.262Z,4.73
2019-04-06T16:20:59.147Z,3.38
2019-04-06T16:26:53.968Z,5.62
2019-04-06T16:32:48.977Z,3.94
2019-04-06T16:38:43.982Z,6.47
2019-04-06T16:44:38.956Z,7.23
2019-04-06T16:50:33.962Z,10
2019-04-06T16:56:28.974Z,8.08
2019-04-06T17:02:24.838Z,9.62
2019-04-06T17:08:19.063Z,9.95
2019-04-06T17:14:13.980Z,11.57
2019-04-06T17:20:08.982Z,12.96
2019-04-06T17:26:03.983Z,15.17
2019-04-06T17:31:58.971Z,14.81
2019-04-06T17:37:53.997Z,16.42
2019-04-06T17:43:49.012Z,13.73
2019-04-06T17:49:44.071Z,13.22
2019-04-06T17:55:38.998Z,20.68
2019-04-06T18:01:34.216Z,18.78
2019-04-06T18:07:29.009Z,15.54
2019-04-06T18:13:24.052Z,14
2019-04-06T18:19:19.302Z,18.32
2019-04-06T18:25:14.456Z,15.32
2019-04-06T18:31:09.321Z,18.2
2019-04-06T18:37:04.042Z,19.15
2019-04-06T18:42:59.040Z,19.66
2019-04-06T18:48:54.107Z,17.68
2019-04-06T18:54:49.476Z,18.42
2019-04-06T19:00:44.037Z,15.62
2019-04-06T19:06:39.049Z,15.34
2019-04-06T19:12:34.047Z,16.44
2019-04-06T19:18:29.447Z,15.58
2019-04-06T19:24:24.052Z,16.51
2019-04-06T19:30:19.316Z,13.79
2019-04-06T19:36:14.074Z,12.47
2019-04-06T19:42:09.285Z,13.26
2019-04-06T19:48:04.199Z,12.6
2019-04-06T19:53:59.254Z,12.43
2019-04-06T19:59:54.080Z,12.55
2019-04-06T20:05:49.162Z,13.62
2019-04-06T20:11:44.081Z,11.09
2019-04-06T20:17:39.121Z,9.16
2019-04-06T20:23:34.537Z,64.22
2019-04-06T20:29:29.445Z,11.29
2019-04-06T20:35:25.045Z,10.75
2019-04-06T20:41:19.103Z,10.38
2019-04-06T20:47:14.141Z,11.78
2019-04-06T20:53:09.123Z,10.36
2019-04-06T20:59:04.124Z,14.71
2019-04-06T21:04:59.772Z,20.04
2019-04-06T21:10:54.110Z,20.13
2019-04-06T21:16:49.209Z,17.39
2019-04-06T21:22:44.180Z,17.94
2019-04-06T21:28:39.140Z,17.21
2019-04-06T21:34:34.143Z,19.62
2019-04-06T21:40:29.140Z,17.88
2019-04-06T21:46:24.670Z,16.72
2019-04-06T21:52:19.243Z,13.49
2019-04-06T21:58:14.225Z,15.3
2019-04-06T22:04:09.816Z,12.99
2019-04-06T22:10:04.158Z,14.67
2019-04-06T22:15:59.172Z,14.29
2019-04-06T22:21:54.357Z,14.19
2019-04-06T22:27:49.274Z,15.55
2019-04-06T22:33:44.648Z,15.46
2019-04-06T22:39:39.264Z,13
2019-04-06T22:45:34.580Z,11.55
2019-04-06T22:51:29.177Z,12.58
2019-04-06T22:57:24.183Z,13.14
2019-04-06T23:03:19.442Z,14.14
2019-04-06T23:09:14.323Z,13.89
2019-04-06T23:15:09.785Z,14.37
2019-04-06T23:21:04.229Z,14.95
2019-04-06T23:26:59.213Z,14.32
2019-04-06T23:32:54.197Z,18.3
2019-04-06T23:38:49.768Z,15.62
2019-04-06T23:44:44.232Z,14.55
2019-04-06T23:50:39.485Z,18.84
2019-04-06T23:56:35.053Z,12.8
